Saturday, September 22, 2018, 9:37 AM EDT
Back to Local

KSLK, Adirondack Regional Airport

Location: Saranac Lake, NY, United States Lat: 44.4
Local Time: 9:37 AM EDT (13:37 GMT) Lon: -74.2
Time Zone: US/Eastern Elev: 1663 ft

Show me the last for .
Show Decoded

2018-09-22 08:51 METAR KSLK 221251Z AUTO VRB03KT 10SM OVC022 07/04 A3017 RMK AO2 SLP218 T00720039
                 =
2018-09-22 07:51 METAR KSLK 221151Z AUTO VRB04KT 10SM OVC022 07/04 A3015 RMK AO2 SLP210 70050
                 T00720039 10161 20072 51054 =
2018-09-22 07:41 METAR KSLK 221141Z AUTO VRB06KT 10SM BKN024 07/04 A3014 RMK AO2 T00720039 =
2018-09-22 07:09 METAR KSLK 221109Z AUTO 32007KT 270V010 10SM SCT024 07/04 A3012 RMK AO2
                 T00720039 =
2018-09-22 06:51 METAR KSLK 221051Z AUTO 32008KT 240V360 10SM OVC024 08/04 A3010 RMK AO2 SLP192
                 T00830039 =
2018-09-22 05:51 METAR KSLK 220951Z AUTO 10SM OVC023 09/05 A3005 RMK AO2 SLP174 T00890050 =
2018-09-22 05:21 METAR KSLK 220921Z AUTO 32012G24KT 270V360 10SM BKN029 OVC038 10/06 A3002 RMK
                 AO2 T01000056 =
2018-09-22 04:51 METAR KSLK 220851Z AUTO 31008G20KT 270V360 10SM BKN034 OVC042 12/07 A2998 RMK
                 AO2 SLP149 T01170067 53045 =
2018-09-22 04:35 METAR KSLK 220835Z AUTO 31007G20KT 10SM SCT028 OVC038 12/07 A2996 RMK AO2
                 T01220067 =
2018-09-22 04:10 METAR KSLK 220810Z AUTO 30008KT 250V350 10SM BKN026 OVC032 13/09 A2994 RMK AO2
                 T01330089 =
2018-09-22 03:51 METAR KSLK 220751Z AUTO 26007G21KT 10SM SCT028 BKN034 OVC050 13/09 A2993 RMK AO2
                 SLP129 T01330089 =
2018-09-22 02:51 METAR KSLK 220651Z AUTO 26011G17KT 10SM FEW037 14/10 A2988 RMK AO2 SLP114
                 T01440100 =
2018-09-22 02:24 METAR KSLK 220624Z AUTO 27010G20KT 240V320 10SM SCT029 BKN037 15/10 A2986 RMK
                 AO2 T01500100 =
2018-09-22 02:08 METAR KSLK 220608Z AUTO 27008G21KT 10SM BKN029 BKN037 OVC049 16/11 A2985 RMK AO2
                 T01560106 =
2018-09-22 01:51 METAR KSLK 220551Z AUTO 28009G18KT 240V330 10SM SCT029 BKN039 OVC055 16/12 A2984
                 RMK AO2 SLP099 60007 T01610117 10200 20161 53027 =
2018-09-22 00:51 METAR KSLK 220451Z AUTO 25012G21KT 200V280 10SM FEW034 FEW048 BKN075 18/13 A2981
                 RMK AO2 PK WND 24029/0425 SLP088 T01780133 402110111 =
2018-09-22 00:33 METAR KSLK 220433Z AUTO 26013G29KT 10SM FEW022 SCT030 BKN038 19/16 A2980 RMK AO2
                 PK WND 24029/0425 T01890156 =
2018-09-21 23:51 METAR KSLK 220351Z AUTO 24011G24KT 10SM BKN018 BKN025 BKN039 19/18 A2977 RMK AO2
                 SLP076 T01940183 =
2018-09-21 23:43 METAR KSLK 220343Z AUTO 24009G19KT 10SM FEW012 BKN020 BKN025 19/18 A2977 RMK AO2
                 T01890183 =
2018-09-21 23:19 METAR KSLK 220319Z AUTO 25009G18KT 10SM BKN012 OVC021 19/19 A2976 RMK AO2
                 T01890189 =
2018-09-21 22:51 METAR KSLK 220251Z AUTO 23010KT 10SM SCT015 BKN019 OVC026 19/19 A2975 RMK AO2 PK
                 WND 22032/0158 RAB00E18 SLP070 P0006 60007 T01940189 53013 =
2018-09-21 22:18 METAR KSLK 220218Z AUTO 23012G18KT 10SM SCT009 BKN021 OVC028 19/19 A2975 RMK AO2
                 PK WND 22032/0158 RAB00E18 P0006 T01890189 =
2018-09-21 21:51 METAR KSLK 220151Z AUTO 23015G27KT 10SM FEW017 BKN025 OVC034 19/18 A2974 RMK AO2
                 PK WND 20031/0105 RAB08E20 SLP064 P0001 T01940183 =
2018-09-21 20:51 METAR KSLK 220051Z AUTO 22017G30KT 10SM BKN024 BKN033 BKN110 19/18 A2971 RMK AO2
                 PK WND 22030/0045 SLP056 T01940178 =
2018-09-21 20:46 METAR KSLK 220046Z AUTO 22022G30KT 10SM BKN026 BKN031 BKN110 19/18 A2972 RMK AO2
                 PK WND 22030/0045 =
2018-09-21 20:35 METAR KSLK 220035Z AUTO 21018G26KT 10SM SCT028 BKN050 BKN065 19/17 A2970 RMK AO2
                 PK WND 23029/2359 T01940172 =
2018-09-21 20:28 METAR KSLK 220028Z AUTO 22016G23KT 10SM BKN028 BKN032 BKN065 19/17 A2970 RMK AO2
                 PK WND 23029/2359 T01940172 =
2018-09-21 20:21 METAR KSLK 220021Z AUTO 22013G25KT 10SM SCT025 BKN034 BKN046 19/17 A2970 RMK AO2
                 PK WND 23029/2359 T01940172 =
2018-09-21 20:08 METAR KSLK 220008Z AUTO 21018G29KT 10SM BKN027 BKN036 19/17 A2970 RMK AO2 PK WND
                 23029/2359 T01940172 =
2018-09-21 19:51 METAR KSLK 212351Z AUTO 22015G21KT 10SM SCT029 BKN065 OVC120 19/17 A2971 RMK AO2
                 PK WND 20027/2307 RAB33E45 SLP054 P0000 60000 T01940172 10211 20194 56018 =
2018-09-21 18:51 METAR KSLK 212251Z AUTO 21017G26KT 10SM FEW021 20/17 A2972 RMK AO2 PK WND
                 21026/2244 SLP057 T02000172 =
2018-09-21 18:17 METAR KSLK 212217Z AUTO 20015G23KT 10SM SCT022 SCT028 20/17 A2973 RMK AO2
                 T02000172 =
2018-09-21 17:51 METAR KSLK 212151Z AUTO 20021G27KT 10SM BKN022 BKN030 21/17 A2974 RMK AO2 PK WND
                 21031/2126 SLP065 T02060172 =
2018-09-21 16:51 METAR KSLK 212051Z AUTO 19019G25KT 10SM OVC021 21/18 A2977 RMK AO2 SLP075
                 T02060178 58041 =
2018-09-21 15:51 METAR KSLK 211951Z AUTO 18016G24KT 10SM OVC018 21/18 A2982 RMK AO2 PK WND
                 20026/1902 SLP093 T02060178 =
2018-09-21 14:51 METAR KSLK 211851Z AUTO 20016G23KT 10SM OVC018 20/18 A2985 RMK AO2 SLP105
                 T02000178 =
2018-09-21 13:51 METAR KSLK 211751Z AUTO 20016G24KT 10SM BKN016 OVC021 19/17 A2989 RMK AO2 SLP120
                 60043 T01940172 10194 20156 56028 =
2018-09-21 13:03 METAR KSLK 211703Z AUTO 21017G24KT 10SM OVC016 19/17 A2991 RMK AO2 T01890172 =
2018-09-21 12:51 METAR KSLK 211651Z AUTO 20014G23KT 10SM OVC013 18/17 A2992 RMK AO2 SLP131
                 T01830172 =
2018-09-21 11:51 METAR KSLK 211551Z AUTO 20014G26KT 10SM OVC012 18/17 A2994 RMK AO2 PK WND
                 19026/1547 SLP139 T01780167 =
2018-09-21 10:51 METAR KSLK 211451Z AUTO 20012KT 10SM OVC012 17/16 A2998 RMK AO2 RAE48 TSE1354
                 SLP152 P0003 60043 T01670161 56019 =
2018-09-21 10:36 METAR KSLK 211436Z AUTO 21012G18KT 10SM -RA OVC014 17/16 A2998 RMK AO2 TSE1354
                 P0003 T01670161 =
2018-09-21 10:21 METAR KSLK 211421Z AUTO 19015G23KT 6SM VCTS -RA BR OVC014 17/16 A2998 RMK AO2
                 TSE1354 P0002 T01670161 =
2018-09-21 09:55 METAR KSLK 211355Z AUTO 20011G22KT 7SM -RA OVC014 17/16 A3000 RMK AO2 LTG DSNT E
                 TSE54 P0000 T01670161 =
2018-09-21 09:51 METAR KSLK 211351Z AUTO 20014G22KT 6SM -TSRA BR OVC014 17/16 A3000 RMK AO2 LTG
                 DSNT N-E TSB39 SLP158 P0034 T01670161 =
2018-09-21 09:46 METAR KSLK 211346Z AUTO 20009KT 3SM -TSRA BR OVC014 17/16 A3000 RMK AO2 LTG DSNT
                 N-E TSB39 P0033 =
2018-09-21 09:39 METAR KSLK 211339Z AUTO 20013G17KT 1SM +TSRA BR FEW008 OVC014 16/16 A2999 RMK
                 AO2 LTG DSNT N-E TSB39 P0032 T01610161 =

Support USWX by starting your Amazon purchase here.